Time;durP1;ratioP1;P1;durP2;ratioP2;P2;SDS_P1;SDS_P2;PMS_P1;PMS_P2;Temp;Humidity;BMP_temperature;BMP_pressure;BME280_temperature;BME280_humidity;BME280_pressure;Samples;Min_cycle;Max_cycle;Signal;HPM_P1;HPM_P2
2023/09/02 00:00:00;;;;;;;27.33;18.53;;;;;;;15.81;100.00;101538.53;4974454;28;20090;-93
2023/09/02 00:02:25;;;;;;;25.08;17.33;;;;;;;15.78;100.00;101549.88;4973923;28;20023;-92
2023/09/02 00:04:50;;;;;;;24.37;17.07;;;;;;;15.72;100.00;101546.41;4973169;28;20054;-93
2023/09/02 00:07:16;;;;;;;27.43;17.20;;;;;;;15.68;100.00;101547.22;4974092;28;20039;-92
2023/09/02 00:09:41;;;;;;;26.08;17.67;;;;;;;15.59;100.00;101525.38;4977258;28;20034;-93
2023/09/02 00:12:07;;;;;;;28.67;19.67;;;;;;;15.65;100.00;101531.56;4977846;28;20070;-91
2023/09/02 00:14:32;;;;;;;26.90;17.73;;;;;;;15.70;100.00;101529.66;4976681;28;20463;-92
2023/09/02 00:16:58;;;;;;;32.63;19.77;;;;;;;15.75;100.00;101531.50;4975797;28;20301;-92
2023/09/02 00:19:23;;;;;;;32.77;20.00;;;;;;;15.72;100.00;101515.84;4975275;28;20022;-91
2023/09/02 00:21:48;;;;;;;30.00;19.03;;;;;;;15.77;100.00;101529.34;4972939;28;20019;-92
2023/09/02 00:24:14;;;;;;;35.25;20.17;;;;;;;15.82;100.00;101536.63;4972602;28;20027;-92
2023/09/02 00:26:39;;;;;;;26.83;18.17;;;;;;;15.78;100.00;101530.97;4973410;28;20027;-92
2023/09/02 00:29:05;;;;;;;29.43;18.83;;;;;;;15.72;100.00;101527.47;4968630;28;20062;-92
2023/09/02 00:31:30;;;;;;;27.53;17.80;;;;;;;15.84;100.00;101540.69;4973547;28;20054;-92
2023/09/02 00:33:55;;;;;;;27.80;18.33;;;;;;;15.83;100.00;101536.38;4973986;28;20038;-92
2023/09/02 00:36:21;;;;;;;31.03;18.80;;;;;;;15.87;100.00;101533.94;4971620;28;20037;-92
2023/09/02 00:38:48;;;;;;;30.80;18.50;;;;;;;15.87;100.00;101529.34;4973415;28;20035;-92
2023/09/02 00:41:29;;;;;;;30.20;18.98;;;;;;;15.86;100.00;101538.56;4981286;28;20074;-92
2023/09/02 00:43:56;;;;;;;28.25;18.55;;;;;;;15.80;100.00;101534.22;4980086;28;20023;-92
2023/09/02 00:46:22;;;;;;;28.38;18.00;;;;;;;15.90;100.00;101547.69;4972575;28;20497;-92
2023/09/02 00:48:48;;;;;;;31.23;19.00;;;;;;;15.84;100.00;101543.38;4991239;28;20031;-92
2023/09/02 00:51:13;;;;;;;30.63;18.97;;;;;;;15.89;100.00;101543.38;4975348;28;20037;-92
2023/09/02 00:53:38;;;;;;;28.88;19.33;;;;;;;15.87;100.00;101534.75;4973178;28;20187;-93
2023/09/02 00:56:05;;;;;;;26.67;17.47;;;;;;;15.98;100.00;101540.91;4973580;28;20114;-92
2023/09/02 00:58:31;;;;;;;33.00;19.85;;;;;;;15.99;100.00;101552.53;4974058;28;20023;-93
2023/09/02 01:00:58;;;;;;;31.87;18.77;;;;;;;15.97;100.00;101549.31;4972782;28;20026;-92
2023/09/02 01:03:24;;;;;;;28.83;17.47;;;;;;;15.84;100.00;101535.28;4972707;28;20286;-92
2023/09/02 01:05:49;;;;;;;27.58;17.52;;;;;;;15.85;100.00;101546.88;4971586;28;20391;-92
2023/09/02 01:08:19;;;;;;;26.33;17.83;;;;;;;15.84;100.00;101551.50;4974158;28;20399;-93
2023/09/02 01:10:44;;;;;;;26.83;17.43;;;;;;;15.80;100.00;101550.41;4972059;28;20035;-92
2023/09/02 01:13:10;;;;;;;28.55;18.73;;;;;;;15.79;100.00;101550.72;4971846;28;20482;-92
2023/09/02 01:15:35;;;;;;;27.07;17.83;;;;;;;15.78;100.00;101541.78;4972537;28;20104;-92
2023/09/02 01:18:00;;;;;;;30.93;19.17;;;;;;;15.85;100.00;101552.28;4971232;28;20018;-93
2023/09/02 01:20:50;;;;;;;26.23;17.80;;;;;;;15.84;100.00;101550.66;4972484;28;20034;-92
2023/09/02 01:23:52;;;;;;;31.27;19.92;;;;;;;15.90;100.00;101563.91;4950534;28;20123;-92
2023/09/02 01:26:38;;;;;;;32.28;20.30;;;;;;;15.84;100.00;101550.66;4954704;28;20047;-92
2023/09/02 01:29:10;;;;;;;32.03;19.23;;;;;;;15.89;100.00;101558.78;4961486;28;20031;-92
2023/09/02 01:31:36;;;;;;;30.95;18.58;;;;;;;15.80;100.00;101547.72;4951290;28;20496;-92
2023/09/02 01:34:06;;;;;;;37.63;20.27;;;;;;;15.84;100.00;101565.00;4953180;28;20059;-92
2023/09/02 01:36:33;;;;;;;28.33;17.93;;;;;;;15.81;100.00;101554.75;4961636;28;20039;-91
2023/09/02 01:39:00;;;;;;;31.13;19.93;;;;;;;15.79;100.00;101553.41;4970872;28;20309;-92
2023/09/02 01:41:28;;;;;;;28.75;19.60;;;;;;;15.80;100.00;101561.22;4971801;28;20546;-92
2023/09/02 01:43:54;;;;;;;32.50;19.58;;;;;;;15.74;100.00;101556.91;4971368;28;20396;-93
2023/09/02 01:46:19;;;;;;;27.83;18.23;;;;;;;15.60;100.00;101554.00;4969587;28;20123;-92
2023/09/02 01:48:45;;;;;;;31.80;18.97;;;;;;;15.63;100.00;101555.34;4972076;28;20062;-92
2023/09/02 01:51:12;;;;;;;27.63;18.75;;;;;;;15.69;100.00;101557.75;4971449;28;20030;-92
2023/09/02 01:53:38;;;;;;;31.50;19.85;;;;;;;15.68;100.00;101558.84;4972067;28;20031;-92
2023/09/02 01:56:03;;;;;;;32.67;20.47;;;;;;;15.74;100.00;101565.03;4969055;28;20045;-92
2023/09/02 01:58:29;;;;;;;26.48;18.20;;;;;;;15.75;100.00;101567.47;4971484;28;20121;-92
2023/09/02 02:00:54;;;;;;;31.47;20.00;;;;;;;15.68;100.00;101553.44;4980059;28;20049;-91
2023/09/02 02:03:27;;;;;;;31.23;20.53;;;;;;;15.79;100.00;101570.41;4972944;28;20090;-91
2023/09/02 02:05:53;;;;;;;28.95;19.30;;;;;;;15.81;100.00;101572.84;4958676;28;20359;-91
2023/09/02 02:08:44;;;;;;;26.58;17.70;;;;;;;15.69;100.00;101560.44;4988404;28;20035;-92
2023/09/02 02:11:11;;;;;;;26.40;18.45;;;;;;;15.65;100.00;101563.97;4973176;28;20026;-90
2023/09/02 02:13:38;;;;;;;29.63;18.17;;;;;;;15.62;100.00;101570.72;4971474;28;20066;-92
2023/09/02 02:16:03;;;;;;;23.10;15.48;;;;;;;15.65;100.00;101582.88;4971669;28;20082;-91
2023/09/02 02:18:29;;;;;;;29.17;18.73;;;;;;;15.69;100.00;101582.06;4972136;28;20027;-93
2023/09/02 02:20:58;;;;;;;29.37;18.57;;;;;;;15.59;100.00;101566.69;4971272;28;20022;-91
2023/09/02 02:23:23;;;;;;;25.02;17.70;;;;;;;15.65;100.00;101569.38;4972260;28;20031;-91
2023/09/02 02:25:49;;;;;;;24.57;17.47;;;;;;;15.60;100.00;101568.31;4968619;28;20375;-91
2023/09/02 02:28:14;;;;;;;25.27;16.87;;;;;;;15.63;100.00;101572.34;4969887;28;20437;-94
2023/09/02 02:30:39;;;;;;;23.90;16.50;;;;;;;15.63;100.00;101574.25;4972394;28;20031;-93
2023/09/02 02:33:05;;;;;;;24.70;16.00;;;;;;;15.58;100.00;101565.06;4972643;28;20027;-94
2023/09/02 02:35:31;;;;;;;25.97;16.37;;;;;;;15.62;100.00;101578.03;4972400;28;20034;-94
2023/09/02 02:37:59;;;;;;;28.45;16.65;;;;;;;15.66;100.00;101588.00;4972110;28;20529;-94
2023/09/02 02:40:25;;;;;;;30.40;16.58;;;;;;;15.63;100.00;101585.06;4972910;28;20121;-95
2023/09/02 02:42:50;;;;;;;20.40;15.48;;;;;;;15.63;100.00;101583.16;4971748;28;20077;-94
2023/09/02 02:45:15;;;;;;;29.80;17.00;;;;;;;15.68;100.00;101590.44;4969623;28;20563;-94
2023/09/02 02:47:41;;;;;;;23.80;16.33;;;;;;;15.66;100.00;101589.91;4972100;28;20395;-94
2023/09/02 02:50:06;;;;;;;25.60;16.30;;;;;;;15.70;100.00;101594.50;4974043;28;20022;-95
2023/09/02 02:52:31;;;;;;;24.33;16.27;;;;;;;15.70;100.00;101593.69;4979352;28;20049;-95
2023/09/02 02:54:57;;;;;;;25.33;15.67;;;;;;;15.73;100.00;101595.81;4983601;28;20043;-94
2023/09/02 02:57:22;;;;;;;21.83;15.53;;;;;;;15.71;100.00;101596.09;4985640;28;20414;-94
2023/09/02 02:59:50;;;;;;;22.07;15.30;;;;;;;15.70;100.00;101599.09;4975848;28;20039;-95
2023/09/02 03:02:16;;;;;;;25.15;16.60;;;;;;;15.71;100.00;101595.28;4975452;28;20035;-92
2023/09/02 03:04:46;;;;;;;24.67;16.20;;;;;;;15.71;100.00;101601.50;4974290;28;20119;-93
2023/09/02 03:07:12;;;;;;;24.92;16.13;;;;;;;15.68;100.00;101590.44;4975084;28;20038;-93
2023/09/02 03:09:37;;;;;;;22.92;15.88;;;;;;;15.60;100.00;101576.41;4974432;28;20023;-91
2023/09/02 03:12:03;;;;;;;20.73;15.00;;;;;;;15.64;100.00;101589.38;4973678;28;20506;-90
2023/09/02 03:14:28;;;;;;;23.80;15.00;;;;;;;15.55;100.00;101583.72;4974755;28;20026;-90
2023/09/02 03:16:53;;;;;;;21.47;14.17;;;;;;;15.50;100.00;101572.91;4970844;28;20525;-90
2023/09/02 03:19:19;;;;;;;20.55;15.40;;;;;;;15.58;100.00;101588.56;4973117;28;20118;-90
2023/09/02 03:21:44;;;;;;;25.03;15.77;;;;;;;15.60;100.00;101589.13;4975883;28;20043;-91
2023/09/02 03:24:10;;;;;;;24.57;16.03;;;;;;;15.57;100.00;101585.06;4975810;28;20018;-91
2023/09/02 03:26:35;;;;;;;23.47;14.33;;;;;;;15.42;100.00;101574.28;4976154;28;20106;-90
2023/09/02 03:29:00;;;;;;;20.13;14.47;;;;;;;15.49;100.00;101590.19;4982107;28;20043;-90
2023/09/02 03:31:26;;;;;;;25.30;15.93;;;;;;;15.47;100.00;101587.78;4973976;28;20278;-90
2023/09/02 03:33:51;;;;;;;22.90;15.20;;;;;;;15.43;100.00;101592.91;4970730;28;20122;-90
2023/09/02 03:36:17;;;;;;;20.43;14.87;;;;;;;15.41;100.00;101592.38;4972913;28;20022;-90
2023/09/02 03:38:43;;;;;;;21.75;14.63;;;;;;;15.36;100.00;101588.84;4971612;28;20033;-91
2023/09/02 03:41:12;;;;;;;23.67;14.40;;;;;;;15.48;100.00;101607.47;4972415;28;20109;-90
2023/09/02 03:43:38;;;;;;;23.47;15.43;;;;;;;15.52;100.00;101600.47;4972600;28;20062;-90
2023/09/02 03:46:03;;;;;;;24.60;15.70;;;;;;;15.54;100.00;101607.19;4972392;28;20112;-91
2023/09/02 03:48:28;;;;;;;32.37;17.13;;;;;;;15.63;100.00;101610.16;4970823;28;20023;-90
2023/09/02 03:51:05;;;;;;;26.67;17.50;;;;;;;15.63;100.00;101609.38;4971595;28;20030;-90
2023/09/02 03:53:34;;;;;;;28.23;17.88;;;;;;;15.58;100.00;101607.50;4973715;28;20027;-90
2023/09/02 03:56:00;;;;;;;27.08;18.20;;;;;;;15.67;100.00;101615.84;4972889;28;20069;-90
2023/09/02 03:58:27;;;;;;;33.92;19.02;;;;;;;15.63;100.00;101606.66;4962925;28;20531;-90
2023/09/02 04:00:53;;;;;;;27.67;18.13;;;;;;;15.66;100.00;101614.22;4973043;28;20027;-90
2023/09/02 04:03:20;;;;;;;29.30;18.07;;;;;;;15.64;100.00;101610.97;4976019;28;20305;-90
2023/09/02 04:05:46;;;;;;;27.35;17.35;;;;;;;15.66;100.00;101608.81;4972852;28;20027;-90
2023/09/02 04:08:12;;;;;;;25.57;17.17;;;;;;;15.68;100.00;101614.75;4971017;28;20033;-90
2023/09/02 04:10:37;;;;;;;27.47;17.33;;;;;;;15.66;100.00;101614.22;4973260;28;20290;-92
2023/09/02 04:13:03;;;;;;;24.67;15.80;;;;;;;15.58;100.00;101600.19;4971520;28;20054;-91
2023/09/02 04:15:28;;;;;;;25.73;14.93;;;;;;;15.63;100.00;101617.47;4955815;28;20031;-90
2023/09/02 04:17:54;;;;;;;21.10;15.23;;;;;;;15.60;100.00;101606.13;4963235;28;20035;-91
2023/09/02 04:20:20;;;;;;;20.40;14.77;;;;;;;15.59;100.00;101614.50;4973434;28;20178;-90
2023/09/02 04:22:46;;;;;;;20.80;14.38;;;;;;;15.63;100.00;101628.28;4971735;28;20031;-91
2023/09/02 04:25:12;;;;;;;22.77;14.23;;;;;;;15.56;100.00;101621.25;4973257;28;20034;-91
2023/09/02 04:27:37;;;;;;;21.88;14.82;;;;;;;15.56;100.00;101617.75;4967551;28;20023;-90
2023/09/02 04:30:03;;;;;;;25.08;14.13;;;;;;;15.56;100.00;101623.94;4971260;28;20185;-91
2023/09/02 04:32:29;;;;;;;18.37;12.23;;;;;;;15.50;100.00;101602.63;4972673;28;20093;-90
2023/09/02 04:34:57;;;;;;;16.93;12.00;;;;;;;15.56;100.00;101621.25;4969541;28;20038;-90
2023/09/02 04:37:22;;;;;;;20.88;12.15;;;;;;;15.48;100.00;101610.19;4972967;28;20041;-94
2023/09/02 04:39:47;;;;;;;20.20;12.30;;;;;;;15.48;100.00;101612.88;4994620;28;20038;-95
2023/09/02 04:42:22;;;;;;;19.58;12.43;;;;;;;15.55;100.00;101627.72;5057808;22;20116;-96
2023/09/02 04:44:50;;;;;;;18.10;12.67;;;;;;;15.19;100.00;101579.16;5056064;28;20028;-96
2023/09/02 04:47:16;;;;;;;17.90;11.97;;;;;;;15.22;100.00;101586.72;5039683;28;20289;-96
2023/09/02 04:49:42;;;;;;;19.17;11.05;;;;;;;15.33;100.00;101605.63;5005791;28;20050;-92
2023/09/02 04:52:07;;;;;;;18.03;11.47;;;;;;;15.35;100.00;101608.84;5012713;28;20037;-94
2023/09/02 04:54:33;;;;;;;13.37;9.87;;;;;;;15.41;100.00;101623.97;5012585;28;20304;-94
2023/09/02 04:56:58;;;;;;;17.93;10.80;;;;;;;15.46;100.00;101637.47;5014780;28;20057;-94
2023/09/02 04:59:23;;;;;;;16.23;11.07;;;;;;;15.43;100.00;101630.72;5016110;28;20068;-95
2023/09/02 05:01:49;;;;;;;14.23;9.73;;;;;;;15.49;100.00;101639.63;5011980;28;20038;-92
2023/09/02 05:04:20;;;;;;;18.37;10.73;;;;;;;15.45;100.00;101635.84;5018919;28;20068;-95
2023/09/02 05:06:45;;;;;;;14.95;10.30;;;;;;;15.44;100.00;101636.94;5014772;28;20026;-95
2023/09/02 05:09:11;;;;;;;14.43;9.93;;;;;;;15.41;100.00;101645.56;5012585;28;20029;-96
2023/09/02 05:11:36;;;;;;;18.53;11.30;;;;;;;15.42;100.00;101658.00;5014871;28;20477;-92
2023/09/02 05:14:01;;;;;;;18.83;11.67;;;;;;;15.36;100.00;101640.16;5014696;28;20684;-94
2023/09/02 05:16:27;;;;;;;16.87;10.73;;;;;;;15.34;100.00;101642.34;5016500;28;20036;-94
2023/09/02 05:18:52;;;;;;;18.90;11.47;;;;;;;15.36;100.00;101645.56;5018846;28;20057;-96
2023/09/02 05:21:17;;;;;;;14.40;10.03;;;;;;;15.38;100.00;101651.50;5020683;28;20017;-95
2023/09/02 05:23:43;;;;;;;14.90;10.40;;;;;;;15.33;100.00;101648.81;5017581;28;20091;-96
2023/09/02 05:26:08;;;;;;;14.50;10.18;;;;;;;15.33;100.00;101660.44;5012485;28;20026;-96
2023/09/02 05:28:33;;;;;;;16.07;11.03;;;;;;;15.37;100.00;101664.22;5009278;28;20029;-96
2023/09/02 05:30:58;;;;;;;19.13;10.83;;;;;;;15.36;100.00;101669.88;5015780;28;20061;-95
2023/09/02 05:33:24;;;;;;;16.43;10.50;;;;;;;15.34;100.00;101672.84;5016539;28;20025;-96
2023/09/02 05:35:51;;;;;;;14.80;10.00;;;;;;;15.32;100.00;101674.22;5014882;28;20038;-94
2023/09/02 05:38:16;;;;;;;14.77;9.63;;;;;;;15.36;100.00;101694.16;5003103;28;20109;-95
2023/09/02 05:40:42;;;;;;;16.83;10.20;;;;;;;15.36;100.00;101670.69;5006622;28;20034;-94
2023/09/02 05:43:07;;;;;;;15.77;9.95;;;;;;;15.49;100.00;101688.25;5011816;28;20034;-93
2023/09/02 05:45:33;;;;;;;16.43;9.70;;;;;;;15.45;100.00;101681.75;5006291;28;20018;-95
2023/09/02 05:48:00;;;;;;;16.57;9.93;;;;;;;15.50;100.00;101681.78;5009200;28;20018;-94
2023/09/02 05:50:26;;;;;;;14.93;10.77;;;;;;;15.58;100.00;101680.41;5012313;28;20065;-93
2023/09/02 05:52:52;;;;;;;17.35;11.75;;;;;;;15.63;100.00;101682.31;5013891;28;20422;-95
2023/09/02 05:55:17;;;;;;;15.63;10.17;;;;;;;15.70;100.00;101682.84;5007400;28;20022;-96
2023/09/02 05:57:42;;;;;;;19.63;12.10;;;;;;;15.81;100.00;101697.13;4999842;28;20103;-94
2023/09/02 06:00:08;;;;;;;22.70;12.53;;;;;;;15.87;100.00;101696.09;5015810;28;20026;-95
2023/09/02 06:02:34;;;;;;;19.05;11.88;;;;;;;15.89;100.00;101688.53;5027417;28;20084;-95
2023/09/02 06:05:00;;;;;;;19.03;11.17;;;;;;;15.89;100.00;101692.00;5015039;28;20047;-95
2023/09/02 06:07:25;;;;;;;14.20;10.70;;;;;;;15.92;100.00;101679.03;5026831;28;20036;-94
2023/09/02 06:09:51;;;;;;;18.45;11.68;;;;;;;15.96;100.00;101680.13;5017657;28;20677;-95
2023/09/02 06:12:16;;;;;;;18.47;11.37;;;;;;;16.08;100.00;101693.34;5010164;28;20548;-95
2023/09/02 06:14:42;;;;;;;15.77;10.40;;;;;;;16.06;100.00;101680.13;5009539;28;20524;-93
2023/09/02 06:17:08;;;;;;;19.67;11.30;;;;;;;16.09;100.00;101687.66;5008089;28;20397;-94
2023/09/02 06:19:34;;;;;;;14.03;10.17;;;;;;;16.10;100.00;101705.50;5011412;28;20034;-95
2023/09/02 06:21:59;;;;;;;18.73;11.70;;;;;;;16.16;100.00;101715.22;5011073;28;20037;-95
2023/09/02 06:24:26;;;;;;;17.90;11.50;;;;;;;16.22;100.00;101723.34;5009170;28;20072;-95
2023/09/02 06:26:52;;;;;;;15.27;11.73;;;;;;;16.30;100.00;101723.59;5012834;28;20091;-94
2023/09/02 06:29:17;;;;;;;18.35;12.23;;;;;;;16.28;100.00;101722.22;5015659;28;20065;-94
2023/09/02 06:31:43;;;;;;;16.27;11.20;;;;;;;16.34;100.00;101726.53;5013152;28;20152;-95
2023/09/02 06:34:08;;;;;;;17.77;11.17;;;;;;;16.44;100.00;101723.78;5015135;28;20030;-95
2023/09/02 06:36:36;;;;;;;19.90;12.53;;;;;;;16.50;100.00;101728.09;5013189;28;20034;-92
2023/09/02 06:39:01;;;;;;;15.95;11.20;;;;;;;16.56;100.00;101728.88;5011998;28;20025;-94
2023/09/02 06:41:26;;;;;;;15.13;11.23;;;;;;;16.72;100.00;101745.06;5015944;28;20102;-91
2023/09/02 06:43:53;;;;;;;16.92;11.70;;;;;;;16.81;100.00;101752.31;5016340;28;20026;-96
2023/09/02 06:46:20;;;;;;;18.90;12.50;;;;;;;16.76;100.00;101749.66;5016458;28;20037;-94
2023/09/02 06:48:46;;;;;;;14.65;11.45;;;;;;;16.82;100.00;101755.88;5018154;28;20049;-95
2023/09/02 06:51:12;;;;;;;16.88;11.60;;;;;;;16.89;100.00;101769.09;5015457;28;20045;-86
2023/09/02 06:53:42;;;;;;;16.85;12.15;;;;;;;16.88;100.00;101765.59;5012896;28;20060;-88
2023/09/02 06:56:08;;;;;;;16.85;12.27;;;;;;;16.87;100.00;101768.56;5011311;28;20481;-86
2023/09/02 06:58:41;;;;;;;15.73;11.60;;;;;;;16.94;100.00;101780.69;5011889;28;20037;-87
2023/09/02 07:01:15;;;;;;;17.92;12.13;;;;;;;16.97;100.00;101782.09;5013332;28;20022;-86
2023/09/02 07:03:41;;;;;;;16.53;11.73;;;;;;;17.05;100.00;101789.63;5012028;28;20022;-86
2023/09/02 07:06:06;;;;;;;20.70;16.50;;;;;;;17.07;100.00;101798.28;5009866;28;20304;-86
2023/09/02 07:08:32;;;;;;;21.70;14.57;;;;;;;17.12;100.00;101805.56;5011116;28;20112;-87
2023/09/02 07:10:58;;;;;;;18.33;14.85;;;;;;;17.17;100.00;101799.28;5011973;28;20029;-87
2023/09/02 07:13:23;;;;;;;26.80;16.63;;;;;;;17.43;100.00;101810.00;5013341;28;20061;-87
2023/09/02 07:15:57;;;;;;;24.10;16.63;;;;;;;17.54;100.00;101816.97;5011984;28;20068;-86
2023/09/02 07:18:23;;;;;;;25.58;18.23;;;;;;;17.60;100.00;101826.69;5013189;28;20702;-86
2023/09/02 07:20:48;;;;;;;24.43;17.27;;;;;;;17.79;100.00;101821.41;5006975;28;20034;-87
2023/09/02 07:23:13;;;;;;;24.60;18.97;;;;;;;17.91;100.00;101834.59;5011269;28;20080;-87
2023/09/02 07:25:39;;;;;;;25.08;17.67;;;;;;;18.08;100.00;101825.25;5009822;28;20037;-87
2023/09/02 07:28:04;;;;;;;20.50;17.13;;;;;;;18.27;100.00;101831.59;5010877;28;20030;-87
2023/09/02 07:30:30;;;;;;;22.37;17.43;;;;;;;18.50;100.00;101834.66;5008159;28;20033;-87
2023/09/02 07:32:55;;;;;;;23.45;15.90;;;;;;;18.65;100.00;101839.13;5014819;28;20101;-87
2023/09/02 07:35:20;;;;;;;19.53;15.17;;;;;;;18.77;100.00;101836.00;5008441;28;20516;-87
2023/09/02 07:37:46;;;;;;;22.30;16.87;;;;;;;18.81;100.00;101836.22;5009606;28;20026;-87
2023/09/02 07:40:11;;;;;;;17.17;15.10;;;;;;;18.79;100.00;101822.94;5011209;28;20053;-87
2023/09/02 07:42:36;;;;;;;15.80;14.20;;;;;;;18.89;100.00;101839.09;5017860;28;20049;-87
2023/09/02 07:45:02;;;;;;;16.07;14.37;;;;;;;18.99;100.00;101849.06;5012525;28;20026;-86
2023/09/02 07:47:27;;;;;;;17.38;14.30;;;;;;;19.05;100.00;101847.09;5012047;28;20096;-86
2023/09/02 07:49:54;;;;;;;16.40;13.47;;;;;;;19.12;100.00;101863.84;5013267;28;20069;-87
2023/09/02 07:52:19;;;;;;;16.85;14.55;;;;;;;19.11;100.00;101855.97;5009395;28;20080;-87
2023/09/02 07:54:44;;;;;;;16.37;13.80;;;;;;;19.10;100.00;101866.06;5011348;28;20470;-87
2023/09/02 07:57:10;;;;;;;15.93;14.20;;;;;;;19.17;100.00;101860.25;5010921;28;20057;-87
2023/09/02 07:59:35;;;;;;;16.67;14.87;;;;;;;19.18;100.00;101872.75;5011984;28;20041;-86
2023/09/02 08:02:00;;;;;;;16.38;14.57;;;;;;;19.19;100.00;101864.28;5007246;28;20516;-86
2023/09/02 08:04:26;;;;;;;17.67;13.60;;;;;;;19.32;100.00;101864.69;5008639;28;20026;-86
2023/09/02 08:06:51;;;;;;;15.57;13.97;;;;;;;19.45;100.00;101855.81;5011173;28;20022;-86
2023/09/02 08:09:19;;;;;;;15.77;14.13;;;;;;;19.66;100.00;101864.47;5013828;28;20037;-86
2023/09/02 08:11:44;;;;;;;16.67;14.98;;;;;;;19.69;100.00;101857.66;5019916;28;20026;-87
2023/09/02 08:14:09;;;;;;;17.50;15.70;;;;;;;19.67;100.00;101874.25;5012327;28;20112;-87
2023/09/02 08:16:36;;;;;;;17.33;15.23;;;;;;;19.68;100.00;101875.06;5005792;28;20038;-85
2023/09/02 08:19:01;;;;;;;18.58;16.40;;;;;;;19.66;100.00;101880.00;5012251;28;20629;-89
2023/09/02 08:21:26;;;;;;;18.57;16.40;;;;;;;19.64;100.00;101876.75;5014456;28;20067;-96
2023/09/02 08:23:52;;;;;;;18.77;16.07;;;;;;;19.58;100.00;101864.31;5030894;28;20083;-96
2023/09/02 08:26:18;;;;;;;19.20;16.77;;;;;;;19.59;100.00;101871.38;5024849;28;20306;-95
2023/09/02 08:28:44;;;;;;;20.33;17.77;;;;;;;19.57;100.00;101874.41;5038075;28;20026;-96
2023/09/02 08:31:12;;;;;;;20.10;17.90;;;;;;;19.49;100.00;101866.91;5014363;28;20052;-96
2023/09/02 08:33:38;;;;;;;21.92;18.10;;;;;;;19.48;100.00;101873.44;4994792;28;20030;-96
2023/09/02 08:36:03;;;;;;;21.95;19.38;;;;;;;19.47;100.00;101882.69;4998460;28;20100;-96
2023/09/02 08:38:28;;;;;;;22.80;18.60;;;;;;;19.49;100.00;101878.59;4998117;28;20034;-96
2023/09/02 08:40:57;;;;;;;23.97;19.00;;;;;;;19.60;100.00;101892.84;5012923;28;20030;-96
2023/09/02 08:43:25;;;;;;;22.20;19.70;;;;;;;19.62;100.00;101879.78;5007078;28;20041;-96
2023/09/02 08:45:55;;;;;;;22.33;18.80;;;;;;;19.91;100.00;101894.31;5024077;28;20022;-96
2023/09/02 08:48:24;;;;;;;20.95;18.75;;;;;;;20.02;100.00;101906.69;4989242;28;20482;-96
2023/09/02 08:50:52;;;;;;;20.53;18.43;;;;;;;20.01;100.00;101898.78;4999784;28;20035;-96
2023/09/02 08:53:19;;;;;;;20.23;18.10;;;;;;;20.18;100.00;101911.88;4995549;28;20066;-94
2023/09/02 08:55:47;;;;;;;24.02;21.52;;;;;;;20.25;100.00;101907.66;5011230;28;20129;-94
2023/09/02 08:58:13;;;;;;;25.92;23.23;;;;;;;20.23;100.00;101909.88;5009755;28;20470;-94
2023/09/02 09:00:41;;;;;;;24.45;21.95;;;;;;;20.22;100.00;101904.75;5000360;28;20026;-96
2023/09/02 09:03:11;;;;;;;23.47;21.07;;;;;;;20.28;100.00;101909.78;5003958;28;20035;-96
2023/09/02 09:05:39;;;;;;;26.40;23.70;;;;;;;20.17;100.00;101919.25;4996921;28;20277;-95
2023/09/02 09:08:05;;;;;;;28.02;24.98;;;;;;;20.03;100.00;101919.19;4995802;28;20065;-93
2023/09/02 09:10:32;;;;;;;26.52;23.67;;;;;;;19.84;100.00;101908.25;5017829;28;20497;-94
2023/09/02 09:12:58;;;;;;;29.00;25.25;;;;;;;19.62;100.00;101917.00;5003226;28;20035;-94
2023/09/02 09:15:24;;;;;;;27.70;23.88;;;;;;;19.56;100.00;101935.31;5015893;28;20030;-95
2023/09/02 09:17:50;;;;;;;29.33;25.43;;;;;;;19.34;100.00;101916.84;5015515;28;20042;-95
2023/09/02 09:20:16;;;;;;;28.70;25.75;;;;;;;19.32;100.00;101929.91;5010322;28;20029;-94
2023/09/02 09:22:42;;;;;;;29.60;24.40;;;;;;;19.36;100.00;101917.34;5011315;28;20037;-96
2023/09/02 09:25:08;;;;;;;30.67;26.87;;;;;;;19.59;100.00;101906.72;5014165;28;20026;-96
2023/09/02 09:27:34;;;;;;;28.42;25.02;;;;;;;19.82;100.00;101915.91;5012917;28;20033;-96
2023/09/02 09:30:00;;;;;;;28.75;25.65;;;;;;;20.12;100.00;101908.44;5026546;28;20026;-96
2023/09/02 09:32:26;;;;;;;26.90;23.90;;;;;;;20.36;100.00;101924.63;5024837;28;20026;-96
2023/09/02 09:34:51;;;;;;;31.13;25.90;;;;;;;20.52;100.00;101925.19;5028129;28;20048;-96
2023/09/02 09:37:18;;;;;;;37.05;26.80;;;;;;;20.76;100.00;101937.06;5013427;28;20037;-92
2023/09/02 09:39:45;;;;;;;26.80;24.03;;;;;;;20.66;100.00;101951.63;5011512;28;20049;-91
2023/09/02 09:42:13;;;;;;;26.20;23.40;;;;;;;20.94;100.00;101960.69;5010635;28;20292;-93
2023/09/02 09:44:53;;;;;;;28.20;23.23;;;;;;;21.13;100.00;101959.78;5011995;28;20037;-94
2023/09/02 09:47:19;;;;;;;24.83;21.33;;;;;;;21.18;100.00;101962.41;5008142;28;20038;-93
2023/09/02 09:49:49;;;;;;;24.42;21.85;;;;;;;21.16;100.00;101976.34;5011000;28;20033;-94
2023/09/02 09:52:14;;;;;;;23.98;21.30;;;;;;;21.30;100.00;101976.34;5012614;28;20113;-95
2023/09/02 09:54:45;;;;;;;27.40;23.03;;;;;;;21.55;100.00;101982.38;5020340;28;20053;-96
2023/09/02 09:57:14;;;;;;;26.63;23.30;;;;;;;21.91;100.00;101978.09;5014942;28;20475;-92
2023/09/02 09:59:49;;;;;;;24.53;21.97;;;;;;;22.08;100.00;101964.59;5026791;28;20026;-96
2023/09/02 10:02:16;;;;;;;28.00;24.17;;;;;;;22.04;100.00;101932.78;5511925;22;20345;-95
2023/09/02 10:04:51;;;;;;;26.38;22.50;;;;;;;22.38;100.00;101955.97;5231731;22;20024;-93
2023/09/02 10:07:33;;;;;;;25.75;23.08;;;;;;;22.52;100.00;101961.41;5013727;28;20033;-94
2023/09/02 10:10:05;;;;;;;23.95;21.45;;;;;;;22.42;100.00;101976.13;5010953;28;20033;-94
2023/09/02 10:12:34;;;;;;;24.85;22.25;;;;;;;22.37;100.00;101959.81;4987093;28;20033;-94
2023/09/02 10:15:00;;;;;;;24.00;21.50;;;;;;;22.43;100.00;101977.75;4979159;28;20101;-96
2023/09/02 10:17:27;;;;;;;23.03;20.57;;;;;;;22.32;100.00;101955.31;4984244;28;20677;-96
2023/09/02 10:19:53;;;;;;;21.35;19.00;;;;;;;22.35;100.00;101954.69;5001751;28;20022;-94
2023/09/02 10:22:21;;;;;;;20.77;18.58;;;;;;;22.78;100.00;101994.34;4988635;28;20034;-86
2023/09/02 10:25:02;;;;;;;19.88;17.70;;;;;;;23.03;100.00;102000.22;4983743;28;20550;-89
2023/09/02 10:27:32;;;;;;;20.57;18.50;;;;;;;23.02;100.00;101995.09;4986531;28;20085;-89
2023/09/02 10:30:03;;;;;;;18.30;16.40;;;;;;;23.31;100.00;101997.31;4991016;28;20397;-88
2023/09/02 10:32:41;;;;;;;19.48;17.52;;;;;;;23.33;100.00;101997.00;4989332;28;20105;-88
2023/09/02 10:35:17;;;;;;;18.55;16.75;;;;;;;23.35;100.00;102000.22;4999025;28;20039;-92
2023/09/02 10:37:51;;;;;;;19.17;17.17;;;;;;;23.36;100.00;101999.91;4998020;28;20069;-95
2023/09/02 10:40:24;;;;;;;22.37;18.03;;;;;;;23.21;100.00;101995.69;4991867;28;20041;-92
2023/09/02 10:42:50;;;;;;;20.87;18.57;;;;;;;23.08;100.00;101996.56;4993408;28;20297;-93
2023/09/02 10:45:17;;;;;;;21.55;18.83;;;;;;;23.26;100.00;102006.47;4985578;28;20057;-90
2023/09/02 10:47:43;;;;;;;19.45;17.52;;;;;;;23.59;100.00;102005.25;4983090;28;20023;-92
2023/09/02 10:50:09;;;;;;;21.95;18.67;;;;;;;23.71;100.00;102004.66;5000113;28;20037;-89
2023/09/02 10:52:35;;;;;;;26.15;20.95;;;;;;;23.83;100.00;102009.50;5001537;28;20018;-93
2023/09/02 10:55:03;;;;;;;26.13;22.37;;;;;;;23.90;100.00;102020.78;4997619;28;20073;-91
2023/09/02 10:57:30;;;;;;;24.85;22.17;;;;;;;24.04;100.00;102010.50;4999059;28;20449;-91
2023/09/02 11:00:21;;;;;;;24.05;21.45;;;;;;;24.21;100.00;102014.38;4990113;28;20031;-89